createdAt,value
2018-12-10T00:01:13.956Z,12.53
2018-12-10T00:03:53.430Z,7.43
2018-12-10T00:06:31.778Z,10.23
2018-12-10T00:09:09.710Z,12.97
2018-12-10T00:11:47.770Z,8.60
2018-12-10T00:14:23.746Z,8.03
2018-12-10T00:17:00.583Z,6.27
2018-12-10T00:19:38.121Z,6.17
2018-12-10T00:22:16.430Z,6.37
2018-12-10T00:27:37.888Z,7.77
2018-12-10T00:30:14.658Z,8.38
2018-12-10T00:32:52.142Z,8.97
2018-12-10T00:35:27.603Z,8.87
2018-12-10T00:38:04.357Z,6.17
2018-12-10T00:40:46.367Z,9.73
2018-12-10T00:43:21.332Z,6.03
2018-12-10T00:45:56.644Z,8.37
2018-12-10T00:48:29.770Z,13.53
2018-12-10T00:51:07.535Z,14.33
2018-12-10T00:53:45.312Z,11.33
2018-12-10T00:56:20.920Z,15.13
2018-12-10T00:58:58.408Z,10.83
2018-12-10T01:01:36.142Z,15.60
2018-12-10T01:04:11.890Z,10.20
2018-12-10T01:06:49.218Z,14.83
2018-12-10T01:09:26.013Z,16.33
2018-12-10T01:12:03.422Z,14.30
2018-12-10T01:14:39.677Z,6.43
2018-12-10T01:17:17.891Z,13.40
2018-12-10T01:19:54.940Z,14.80
2018-12-10T01:22:32.742Z,11.30
2018-12-10T01:25:11.316Z,13.53
2018-12-10T01:27:40.608Z,6.10
2018-12-10T01:30:09.710Z,7.97
2018-12-10T01:32:39.128Z,11.22
2018-12-10T01:35:08.559Z,12.03
2018-12-10T01:37:37.883Z,10.80
2018-12-10T01:40:07.386Z,8.07
2018-12-10T01:42:36.709Z,11.40
2018-12-10T01:45:07.978Z,12.13
2018-12-10T01:47:37.286Z,12.40
2018-12-10T01:50:06.846Z,10.83
2018-12-10T01:52:36.156Z,12.20
2018-12-10T01:55:06.159Z,14.55
2018-12-10T01:57:35.488Z,9.20
2018-12-10T02:00:06.760Z,9.73
2018-12-10T02:02:36.064Z,6.20
2018-12-10T02:05:05.584Z,11.10
2018-12-10T02:07:34.917Z,8.60
2018-12-10T02:10:04.422Z,5.40
2018-12-10T02:12:33.737Z,10.40
2018-12-10T02:15:03.044Z,15.40
2018-12-10T02:17:32.355Z,7.70
2018-12-10T02:20:01.664Z,10.73
2018-12-10T02:22:31.073Z,11.43
2018-12-10T02:25:00.455Z,12.00
2018-12-10T02:27:29.762Z,15.23
2018-12-10T02:29:59.116Z,18.80
2018-12-10T02:32:28.429Z,13.00
2018-12-10T02:34:57.760Z,17.83
2018-12-10T02:37:27.196Z,16.57
2018-12-10T02:39:56.506Z,16.53
2018-12-10T02:42:25.791Z,9.93
2018-12-10T02:44:55.133Z,18.00
2018-12-10T02:47:24.539Z,14.07
2018-12-10T02:49:53.844Z,15.87
2018-12-10T02:52:23.213Z,18.50
2018-12-10T02:54:52.522Z,16.20
2018-12-10T02:57:21.926Z,13.55
2018-12-10T02:59:52.489Z,14.20
2018-12-10T03:02:21.942Z,14.23
2018-12-10T03:04:51.284Z,19.10
2018-12-10T03:07:20.800Z,11.33
2018-12-10T03:09:50.203Z,18.13
2018-12-10T03:12:19.532Z,12.90
2018-12-10T03:14:48.864Z,14.47
2018-12-10T03:17:18.296Z,18.30
2018-12-10T03:19:47.701Z,14.47
2018-12-10T03:22:16.991Z,14.63
2018-12-10T03:24:46.325Z,11.00
2018-12-10T03:27:22.687Z,14.90
2018-12-10T03:29:52.021Z,17.43
2018-12-10T03:32:21.499Z,17.12
2018-12-10T03:34:52.318Z,15.93
2018-12-10T03:37:21.679Z,13.07
2018-12-10T03:39:50.979Z,17.30
2018-12-10T03:42:20.373Z,14.60
2018-12-10T03:44:49.705Z,14.70
2018-12-10T03:47:19.741Z,17.37
2018-12-10T03:49:49.035Z,22.98
2018-12-10T03:52:18.376Z,16.30
2018-12-10T03:54:47.700Z,16.90
2018-12-10T03:57:17.051Z,16.27
2018-12-10T03:59:46.375Z,17.73
2018-12-10T04:02:15.732Z,14.70
2018-12-10T04:04:45.140Z,17.50
2018-12-10T04:07:14.471Z,12.15
2018-12-10T04:09:43.794Z,18.00
2018-12-10T04:14:53.653Z,20.87
2018-12-10T04:17:23.110Z,14.15
2018-12-10T04:19:53.216Z,10.23
2018-12-10T04:22:22.643Z,7.17
2018-12-10T04:24:51.936Z,6.63
2018-12-10T04:27:21.398Z,10.97
2018-12-10T04:29:50.818Z,8.87
2018-12-10T04:32:20.177Z,10.60
2018-12-10T04:34:49.484Z,16.55
2018-12-10T04:37:18.840Z,10.20
2018-12-10T04:39:48.164Z,6.93
2018-12-10T04:42:17.599Z,10.80
2018-12-10T04:44:46.957Z,7.33
2018-12-10T04:47:16.358Z,10.73
2018-12-10T04:49:45.707Z,8.43
2018-12-10T04:52:16.655Z,9.30
2018-12-10T04:54:45.989Z,11.83
2018-12-10T04:57:15.287Z,14.75
2018-12-10T04:59:52.612Z,10.60
2018-12-10T05:02:16.075Z,11.30
2018-12-10T05:04:45.424Z,17.13
2018-12-10T05:07:14.740Z,12.17
2018-12-10T05:09:44.063Z,12.87
2018-12-10T05:12:13.379Z,15.47
2018-12-10T05:14:42.701Z,10.57
2018-12-10T05:17:12.049Z,10.68
2018-12-10T05:19:41.380Z,9.63
2018-12-10T05:22:10.707Z,13.80
2018-12-10T05:24:40.050Z,11.60
2018-12-10T05:27:09.352Z,14.07
2018-12-10T05:29:38.663Z,14.00
2018-12-10T05:32:08.488Z,12.43
2018-12-10T05:34:37.845Z,11.87
2018-12-10T05:37:07.390Z,11.87
2018-12-10T05:39:38.505Z,15.63
2018-12-10T05:42:09.196Z,17.20
2018-12-10T05:44:38.599Z,12.07
2018-12-10T05:47:07.921Z,12.63
2018-12-10T05:49:37.529Z,12.03
2018-12-10T05:52:07.193Z,13.33
2018-12-10T05:54:36.742Z,14.30
2018-12-10T05:57:06.589Z,11.70
2018-12-10T05:59:39.790Z,16.43
2018-12-10T06:02:09.304Z,17.63
2018-12-10T06:04:38.841Z,11.40
2018-12-10T06:07:08.536Z,12.90
2018-12-10T06:09:38.084Z,11.83
2018-12-10T06:12:07.680Z,8.77
2018-12-10T06:14:37.193Z,15.18
2018-12-10T06:17:07.044Z,13.37
2018-12-10T06:19:36.619Z,14.00
2018-12-10T06:22:06.427Z,16.85
2018-12-10T06:24:35.937Z,14.73
2018-12-10T06:27:06.545Z,11.60
2018-12-10T06:29:36.074Z,12.37
2018-12-10T06:32:06.374Z,17.12
2018-12-10T06:34:35.923Z,19.30
2018-12-10T06:37:06.400Z,15.48
2018-12-10T06:39:35.995Z,16.05
2018-12-10T06:42:08.267Z,20.37
2018-12-10T06:44:39.068Z,15.90
2018-12-10T06:47:08.749Z,10.53
2018-12-10T06:49:38.294Z,16.20
2018-12-10T06:52:13.540Z,10.97
2018-12-10T06:54:43.068Z,12.00
2018-12-10T06:57:12.800Z,13.53
2018-12-10T06:59:42.324Z,8.67
2018-12-10T07:02:11.911Z,8.35
2018-12-10T07:04:41.483Z,5.17
2018-12-10T07:07:11.010Z,8.63
2018-12-10T07:09:40.849Z,9.60
2018-12-10T07:12:18.414Z,7.40
2018-12-10T07:14:48.676Z,9.17
2018-12-10T07:17:18.217Z,6.50
2018-12-10T07:19:47.721Z,8.27
2018-12-10T07:22:17.239Z,7.20
2018-12-10T07:24:46.740Z,4.50
2018-12-10T07:27:16.324Z,7.30
2018-12-10T07:29:45.849Z,7.23
2018-12-10T07:32:15.360Z,7.08
2018-12-10T07:34:44.937Z,10.90
2018-12-10T07:37:14.537Z,13.73
2018-12-10T07:39:44.160Z,11.17
2018-12-10T07:42:13.691Z,9.00
2018-12-10T07:44:43.227Z,11.27
2018-12-10T07:47:12.760Z,11.53
2018-12-10T07:49:42.293Z,7.50
2018-12-10T07:52:11.884Z,13.80
2018-12-10T07:54:41.448Z,5.00
2018-12-10T07:57:11.000Z,7.47
2018-12-10T07:59:40.516Z,7.27
2018-12-10T08:02:10.101Z,9.60
2018-12-10T08:04:39.608Z,5.77
2018-12-10T08:07:09.260Z,5.15
2018-12-10T08:09:38.961Z,4.17
2018-12-10T08:12:08.544Z,7.83
2018-12-10T08:14:38.070Z,12.87
2018-12-10T08:17:07.596Z,5.87
2018-12-10T08:19:37.128Z,4.10
2018-12-10T08:22:06.657Z,10.00
2018-12-10T08:24:44.420Z,4.83
2018-12-10T08:27:14.015Z,6.60
2018-12-10T08:29:43.545Z,5.87
2018-12-10T08:32:13.091Z,6.40
2018-12-10T08:34:42.626Z,6.73
2018-12-10T08:37:12.134Z,7.27
2018-12-10T08:39:41.661Z,5.27
2018-12-10T08:42:11.179Z,5.17
2018-12-10T08:44:40.643Z,7.90
2018-12-10T08:47:16.263Z,5.37
2018-12-10T08:49:41.465Z,4.47
2018-12-10T08:52:10.896Z,7.92
2018-12-10T08:54:40.299Z,6.03
2018-12-10T08:57:09.693Z,7.87
2018-12-10T08:59:39.218Z,6.13
2018-12-10T09:02:08.648Z,7.93
2018-12-10T09:04:37.962Z,9.03
2018-12-10T09:07:07.244Z,9.43
2018-12-10T09:09:36.541Z,7.07
2018-12-10T09:12:06.524Z,5.97
2018-12-10T09:14:36.058Z,13.30
2018-12-10T09:17:06.540Z,8.40
2018-12-10T09:19:35.885Z,6.47
2018-12-10T09:24:40.470Z,8.27
2018-12-10T09:27:09.800Z,13.73
2018-12-10T09:29:39.229Z,10.87
2018-12-10T09:32:08.646Z,8.97
2018-12-10T09:34:37.975Z,14.20
2018-12-10T09:37:07.401Z,8.68
2018-12-10T09:39:36.704Z,9.37
2018-12-10T09:42:06.128Z,13.30
2018-12-10T09:44:35.440Z,12.77
2018-12-10T09:47:06.135Z,13.53
2018-12-10T09:49:35.504Z,15.23
2018-12-10T09:52:06.041Z,10.13
2018-12-10T09:54:35.365Z,9.60
2018-12-10T09:57:04.811Z,9.47
2018-12-10T09:59:34.129Z,12.53
2018-12-10T10:02:03.460Z,14.10
2018-12-10T10:04:32.786Z,9.63
2018-12-10T10:07:02.124Z,14.90
2018-12-10T10:09:34.271Z,5.60
2018-12-10T10:12:03.635Z,2.77
2018-12-10T10:14:32.944Z,7.17
2018-12-10T10:17:02.360Z,9.67
2018-12-10T10:19:31.669Z,7.10
2018-12-10T10:22:01.075Z,7.03
2018-12-10T10:24:30.402Z,7.60
2018-12-10T10:26:59.819Z,8.77
2018-12-10T10:29:29.215Z,9.40
2018-12-10T10:31:58.705Z,13.80
2018-12-10T10:34:28.141Z,13.78
2018-12-10T10:36:57.557Z,12.00
2018-12-10T10:39:26.861Z,12.63
2018-12-10T10:41:57.385Z,10.28
2018-12-10T10:44:26.862Z,13.17
2018-12-10T10:46:56.236Z,10.03
2018-12-10T10:49:25.628Z,6.73
2018-12-10T10:51:54.973Z,15.73
2018-12-10T10:54:24.276Z,8.13
2018-12-10T10:56:53.638Z,5.00
2018-12-10T10:59:22.985Z,8.43
2018-12-10T11:01:59.336Z,8.13
2018-12-10T11:04:28.668Z,9.60
2018-12-10T11:06:57.990Z,7.03
2018-12-10T11:10:30.032Z,9.40
2018-12-10T11:12:59.341Z,9.00
2018-12-10T11:15:28.997Z,5.30
2018-12-10T11:17:58.336Z,10.17
2018-12-10T11:20:27.652Z,5.47
2018-12-10T11:22:57.003Z,9.37
2018-12-10T11:25:26.441Z,15.00
2018-12-10T11:27:55.863Z,12.23
2018-12-10T11:30:25.270Z,13.10
2018-12-10T11:32:54.756Z,15.10
2018-12-10T11:35:24.200Z,6.55
2018-12-10T11:37:53.605Z,11.53
2018-12-10T11:40:23.123Z,16.52
2018-12-10T11:42:52.468Z,10.73
2018-12-10T11:45:22.849Z,12.13
2018-12-10T11:47:52.182Z,8.47
2018-12-10T11:50:24.425Z,11.15
2018-12-10T11:52:53.721Z,12.27
2018-12-10T11:55:23.048Z,14.90
2018-12-10T11:57:52.396Z,11.23
2018-12-10T12:00:24.079Z,13.98
2018-12-10T12:02:53.458Z,12.20
2018-12-10T12:05:22.825Z,14.13
2018-12-10T12:07:52.494Z,14.13
2018-12-10T12:10:22.637Z,12.85
2018-12-10T12:12:51.982Z,7.93
2018-12-10T12:15:21.479Z,9.73
2018-12-10T12:17:50.784Z,13.70
2018-12-10T12:20:20.399Z,11.93
2018-12-10T12:22:49.721Z,12.87
2018-12-10T12:25:20.195Z,12.30
2018-12-10T12:27:57.545Z,17.73
2018-12-10T12:30:36.962Z,20.02
2018-12-10T12:33:06.366Z,11.93
2018-12-10T12:35:41.400Z,16.57
2018-12-10T12:38:15.225Z,12.78
2018-12-10T12:40:50.571Z,11.67
2018-12-10T12:43:28.730Z,6.72
2018-12-10T12:46:04.355Z,1.53
2018-12-10T12:48:34.004Z,2.73
2018-12-10T12:51:15.546Z,2.20
2018-12-10T12:53:53.585Z,3.47
2018-12-10T12:56:29.661Z,5.33
2018-12-10T12:59:08.532Z,5.97
2018-12-10T13:01:49.426Z,9.37
2018-12-10T13:04:28.433Z,3.98
2018-12-10T13:07:07.560Z,8.33
2018-12-10T13:09:45.310Z,8.30
2018-12-10T13:12:20.893Z,7.40
2018-12-10T13:14:59.929Z,8.60
2018-12-10T13:17:38.997Z,13.43
2018-12-10T13:20:17.847Z,6.00
2018-12-10T13:22:56.139Z,6.43
2018-12-10T13:25:28.974Z,12.53
2018-12-10T13:28:00.454Z,11.50
2018-12-10T13:30:39.102Z,13.93
2018-12-10T13:33:17.056Z,14.70
2018-12-10T13:35:54.845Z,15.60
2018-12-10T13:38:36.727Z,9.03
2018-12-10T13:41:12.058Z,14.25
2018-12-10T13:43:50.949Z,8.90
2018-12-10T13:46:27.484Z,11.97
2018-12-10T13:51:52.346Z,7.97
2018-12-10T13:54:29.406Z,8.85
2018-12-10T13:57:06.780Z,10.67
2018-12-10T13:59:44.071Z,14.37
2018-12-10T14:02:21.628Z,16.25
2018-12-10T14:05:06.116Z,11.60
2018-12-10T14:07:47.957Z,13.03
2018-12-10T14:10:25.632Z,16.60
2018-12-10T14:13:03.245Z,9.63
2018-12-10T14:15:41.142Z,12.43
2018-12-10T14:18:20.772Z,10.30
2018-12-10T14:20:59.108Z,10.13
2018-12-10T14:23:35.967Z,12.83
2018-12-10T14:26:14.953Z,9.08
2018-12-10T14:28:52.027Z,14.83
2018-12-10T14:31:33.872Z,13.13
2018-12-10T14:34:14.738Z,10.67
2018-12-10T14:36:57.650Z,4.67
2018-12-10T14:39:36.823Z,2.20
2018-12-10T14:42:26.166Z,2.45
2018-12-10T14:45:03.518Z,5.60
2018-12-10T14:47:46.539Z,2.27
2018-12-10T14:50:24.402Z,2.27
2018-12-10T14:53:02.629Z,1.40
2018-12-10T14:58:30.065Z,1.50
2018-12-10T15:01:08.346Z,1.17
2018-12-10T15:06:33.177Z,4.40
2018-12-10T15:09:11.385Z,4.67
2018-12-10T15:14:39.913Z,5.63
2018-12-10T15:17:17.852Z,11.10
2018-12-10T15:19:55.338Z,14.83
2018-12-10T15:22:35.233Z,10.33
2018-12-10T15:30:21.438Z,10.20
2018-12-10T15:32:59.305Z,15.20
2018-12-10T15:35:37.545Z,12.70
2018-12-10T15:38:16.052Z,12.97
2018-12-10T15:40:57.503Z,8.97
2018-12-10T15:43:37.829Z,11.73
2018-12-10T15:46:16.043Z,17.80
2018-12-10T15:48:56.899Z,13.37
2018-12-10T15:51:33.632Z,12.10
2018-12-10T15:54:10.738Z,13.23
2018-12-10T15:56:51.619Z,18.47
2018-12-10T15:59:29.385Z,14.17
2018-12-10T16:02:11.784Z,15.33
2018-12-10T16:04:49.862Z,16.40
2018-12-10T16:07:29.382Z,15.30
2018-12-10T16:10:08.874Z,11.57
2018-12-10T16:12:50.306Z,21.40
2018-12-10T16:15:29.199Z,16.63
2018-12-10T16:18:07.515Z,15.27
2018-12-10T16:20:47.629Z,14.57
2018-12-10T16:23:27.874Z,19.57
2018-12-10T16:26:07.473Z,16.13
2018-12-10T16:28:45.019Z,20.23
2018-12-10T16:31:21.895Z,14.40
2018-12-10T16:34:00.055Z,13.60
2018-12-10T16:36:39.517Z,12.37
2018-12-10T16:39:19.443Z,10.50
2018-12-10T16:42:02.560Z,11.30
2018-12-10T16:44:42.788Z,17.80
2018-12-10T16:47:21.111Z,15.10
2018-12-10T16:52:47.954Z,16.73
2018-12-10T16:55:30.072Z,14.93
2018-12-10T16:58:09.562Z,14.40
2018-12-10T17:00:46.802Z,20.20
2018-12-10T17:03:26.164Z,12.98
2018-12-10T17:06:01.623Z,13.83
2018-12-10T17:11:05.131Z,10.17
2018-12-10T17:13:42.339Z,16.57
2018-12-10T17:16:20.599Z,14.00
2018-12-10T17:19:01.311Z,14.73
2018-12-10T17:21:53.464Z,24.47
2018-12-10T17:24:31.654Z,19.67
2018-12-10T17:27:09.900Z,23.53
2018-12-10T17:29:48.246Z,20.57
2018-12-10T17:32:29.014Z,25.73
2018-12-10T17:35:10.160Z,20.57
2018-12-10T17:37:48.300Z,18.63
2018-12-10T17:40:25.937Z,10.70
2018-12-10T17:43:02.813Z,11.80
2018-12-10T17:45:41.480Z,18.67
2018-12-10T17:53:17.572Z,16.57
2018-12-10T17:55:56.737Z,15.53
2018-12-10T17:58:33.738Z,16.03
2018-12-10T18:01:11.921Z,14.47
2018-12-10T18:03:50.361Z,13.53
2018-12-10T18:06:28.700Z,12.70
2018-12-10T18:09:04.622Z,15.60
2018-12-10T18:11:42.698Z,16.40
2018-12-10T18:14:22.986Z,15.68
2018-12-10T18:17:04.276Z,18.80
2018-12-10T18:22:24.792Z,20.17
2018-12-10T18:25:02.986Z,15.27
2018-12-10T18:27:41.386Z,16.10
2018-12-10T18:30:19.306Z,20.08
2018-12-10T18:32:56.880Z,16.40
2018-12-10T18:35:32.029Z,18.20
2018-12-10T18:38:09.854Z,21.15
2018-12-10T18:40:47.190Z,19.60
2018-12-10T18:43:23.760Z,19.62
2018-12-10T18:45:59.670Z,22.33
2018-12-10T18:48:36.991Z,14.13
2018-12-10T18:51:12.288Z,23.83
2018-12-10T18:53:51.048Z,28.03
2018-12-10T18:56:30.062Z,17.97
2018-12-10T18:59:08.041Z,20.17
2018-12-10T19:01:46.574Z,17.35
2018-12-10T19:04:24.569Z,18.03
2018-12-10T19:07:03.898Z,19.90
2018-12-10T19:09:41.116Z,20.50
2018-12-10T19:12:18.781Z,16.10
2018-12-10T19:14:58.605Z,15.53
2018-12-10T19:17:35.987Z,15.07
2018-12-10T19:20:14.119Z,22.10
2018-12-10T19:22:57.148Z,17.33
2018-12-10T19:25:34.200Z,13.13
2018-12-10T19:28:13.480Z,10.20
2018-12-10T19:30:47.222Z,12.13
2018-12-10T19:33:30.704Z,11.65
2018-12-10T19:36:08.174Z,13.28
2018-12-10T19:38:45.462Z,20.07
2018-12-10T19:41:22.705Z,20.37
2018-12-10T19:44:00.231Z,14.53
2018-12-10T19:46:38.977Z,20.53
2018-12-10T19:49:16.693Z,14.40
2018-12-10T19:51:55.343Z,18.90
2018-12-10T19:54:34.344Z,17.83
2018-12-10T19:57:13.229Z,16.70
2018-12-10T19:59:51.647Z,26.17
2018-12-10T20:02:33.581Z,17.98
2018-12-10T20:05:11.709Z,20.63
2018-12-10T20:07:49.208Z,16.90
2018-12-10T20:10:25.685Z,18.27
2018-12-10T20:13:03.289Z,12.23
2018-12-10T20:15:40.528Z,16.27
2018-12-10T20:18:20.218Z,21.30
2018-12-10T20:20:58.584Z,18.33
2018-12-10T20:23:33.142Z,14.47
2018-12-10T20:26:10.676Z,16.37
2018-12-10T20:28:52.042Z,24.53
2018-12-10T20:31:30.652Z,17.40
2018-12-10T20:34:05.798Z,17.53
2018-12-10T20:36:44.016Z,20.57
2018-12-10T20:39:20.578Z,21.00
2018-12-10T20:41:58.826Z,13.93
2018-12-10T20:44:37.764Z,19.53
2018-12-10T20:47:14.509Z,23.57
2018-12-10T20:49:51.061Z,18.10
2018-12-10T20:52:33.417Z,17.95
2018-12-10T20:55:07.830Z,19.00
2018-12-10T21:00:12.277Z,23.67
2018-12-10T21:02:50.775Z,18.07
2018-12-10T21:05:29.012Z,17.60
2018-12-10T21:08:06.917Z,14.37
2018-12-10T21:10:43.682Z,17.93
2018-12-10T21:13:23.894Z,19.20
2018-12-10T21:16:03.108Z,20.70
2018-12-10T21:18:40.224Z,11.87
2018-12-10T21:21:18.454Z,16.73
2018-12-10T21:23:57.848Z,13.60
2018-12-10T21:26:34.280Z,11.07
2018-12-10T21:29:11.147Z,7.93
2018-12-10T21:31:49.178Z,10.23
2018-12-10T21:34:28.326Z,8.38
2018-12-10T21:37:05.535Z,14.00
2018-12-10T21:39:43.971Z,15.67
2018-12-10T21:42:21.232Z,13.17
2018-12-10T21:44:56.395Z,14.83
2018-12-10T21:50:21.316Z,12.57
2018-12-10T21:52:54.030Z,12.53
2018-12-10T21:55:27.210Z,17.03
2018-12-10T21:58:00.182Z,11.33
2018-12-10T22:00:33.653Z,15.40
2018-12-10T22:03:12.523Z,13.10
2018-12-10T22:05:49.701Z,11.17
2018-12-10T22:08:26.279Z,11.70
2018-12-10T22:11:02.335Z,10.30
2018-12-10T22:13:39.577Z,16.93
2018-12-10T22:16:22.001Z,13.30
2018-12-10T22:21:43.745Z,22.10
2018-12-10T22:24:21.947Z,18.77
2018-12-10T22:26:59.549Z,14.87
2018-12-10T22:29:40.941Z,15.17
2018-12-10T22:32:17.509Z,13.15
2018-12-10T22:34:55.495Z,13.30
2018-12-10T22:37:33.329Z,20.53
2018-12-10T22:40:10.304Z,18.00
2018-12-10T22:42:48.541Z,14.70
2018-12-10T22:45:27.182Z,19.35
2018-12-10T22:48:06.285Z,15.93
2018-12-10T22:50:44.003Z,17.40
2018-12-10T22:56:06.402Z,18.77
2018-12-10T22:58:43.905Z,20.75
2018-12-10T23:01:21.990Z,13.90
2018-12-10T23:04:00.019Z,15.47
2018-12-10T23:06:36.861Z,14.67
2018-12-10T23:09:17.752Z,15.83
2018-12-10T23:11:55.863Z,15.60
2018-12-10T23:14:31.536Z,16.93
2018-12-10T23:17:09.216Z,13.40
2018-12-10T23:19:44.234Z,13.13
2018-12-10T23:22:21.250Z,13.37
2018-12-10T23:24:58.725Z,15.10
2018-12-10T23:27:37.813Z,19.30
2018-12-10T23:30:18.132Z,12.78
2018-12-10T23:32:55.402Z,21.50
2018-12-10T23:35:32.841Z,16.30
2018-12-10T23:38:10.837Z,16.03
2018-12-10T23:40:48.899Z,16.10
2018-12-10T23:43:29.065Z,21.00
2018-12-10T23:46:07.890Z,16.50
2018-12-10T23:48:44.922Z,16.27
2018-12-10T23:51:22.674Z,17.80
2018-12-10T23:53:59.390Z,18.27
2018-12-10T23:56:37.258Z,16.23
2018-12-10T23:59:15.111Z,18.43
